Terminal Aerodrome Forecast
Issued by NWS Sioux Falls, SD

Home | Current Version | Previous Version | Graphics & Text | Print | Product List | Glossary On
Versions: 1 2 3 4 5 6 7 8 9 10 11 12 13 14 15 16 17 18 19 20 21
000
FTUS43 KFSD 031859 AAB
TAFFSD
TAF AMD
KFSD 031859Z 0319/0418 18012KT P6SM OVC080
     FM032000 16013KT 4SM -RASN OVC050
      TEMPO 0320/0321 3SM -SN OVC030
     FM032100 17014KT 3SM -SN OVC035
      TEMPO 0321/0323 2SM -SN OVC022
     FM032300 16013KT 6SM -SN OVC035
     FM040000 18011KT P6SM OVC010
     FM041500 26008KT P6SM BKN015
     FM041700 28010KT P6SM SCT015=

USA.gov is the U.S. government's official web portal to all federal, state and local government web resources and services.